Time;durP1;ratioP1;P1;durP2;ratioP2;P2;SDS_P1;SDS_P2;PMS_P1;PMS_P2;Temp;Humidity;BMP_temperature;BMP_pressure;BME280_temperature;BME280_humidity;BME280_pressure;Samples;Min_cycle;Max_cycle;Signal;HPM_P1;HPM_P2
2021/03/11 00:00:41;;;;;;;20.88;12.50;;;;;;;7.22;67.05;98464.50;4972397;28;20113;-69
2021/03/11 00:03:07;;;;;;;20.60;13.23;;;;;;;7.03;69.83;98455.03;4988565;28;20037;-69
2021/03/11 00:05:34;;;;;;;23.58;13.63;;;;;;;6.83;70.54;98461.41;4989940;28;20041;-69
2021/03/11 00:08:00;;;;;;;21.10;12.85;;;;;;;6.77;70.99;98447.78;4988373;28;20034;-69
2021/03/11 00:10:26;;;;;;;23.17;12.63;;;;;;;6.72;72.08;98439.34;4971778;28;20145;-68
2021/03/11 00:12:51;;;;;;;18.45;12.38;;;;;;;6.63;71.88;98427.63;4964935;28;20038;-68
2021/03/11 00:15:19;;;;;;;19.83;13.80;;;;;;;6.57;71.77;98407.84;4987948;28;20042;-68
2021/03/11 00:17:45;;;;;;;17.40;12.40;;;;;;;6.59;71.86;98408.59;4989042;28;20124;-67
2021/03/11 00:20:13;;;;;;;18.92;11.63;;;;;;;6.57;71.83;98410.47;4977292;28;20034;-68
2021/03/11 00:22:39;;;;;;;21.45;11.98;;;;;;;6.60;72.15;98404.22;4952959;28;20035;-69
2021/03/11 00:25:08;;;;;;;16.98;10.50;;;;;;;6.57;71.99;98404.38;4979872;28;20521;-69
2021/03/11 00:27:33;;;;;;;16.92;10.85;;;;;;;6.56;72.72;98413.16;4937237;28;20053;-67
2021/03/11 00:29:58;;;;;;;16.70;10.90;;;;;;;6.50;72.75;98419.59;4967458;28;20585;-67
2021/03/11 00:32:24;;;;;;;14.40;8.93;;;;;;;6.51;72.94;98405.56;4989175;28;20097;-68
2021/03/11 00:34:49;;;;;;;14.52;9.85;;;;;;;6.55;72.44;98403.63;4989397;28;20438;-68
2021/03/11 00:37:15;;;;;;;14.63;9.30;;;;;;;6.60;72.16;98396.38;4972271;28;20566;-68
2021/03/11 00:39:40;;;;;;;13.65;10.27;;;;;;;6.59;71.83;98385.03;4989412;28;20031;-69
2021/03/11 00:42:06;;;;;;;10.65;7.57;;;;;;;6.63;71.53;98388.34;4974545;28;20043;-68
2021/03/11 00:44:31;;;;;;;11.15;7.68;;;;;;;6.65;71.23;98400.41;4972471;28;20383;-71
2021/03/11 00:46:56;;;;;;;10.27;7.10;;;;;;;6.70;70.58;98391.47;4967991;28;20070;-69
2021/03/11 00:49:22;;;;;;;11.77;6.70;;;;;;;6.71;70.44;98393.97;4952904;28;20045;-69
2021/03/11 00:51:47;;;;;;;10.48;7.18;;;;;;;6.75;70.32;98398.13;4971232;28;20027;-69
2021/03/11 00:54:13;;;;;;;10.77;6.65;;;;;;;6.76;70.40;98399.81;4981419;28;20035;-68
2021/03/11 00:56:38;;;;;;;11.35;7.18;;;;;;;6.79;70.19;98388.31;4969603;28;20030;-70
2021/03/11 00:59:03;;;;;;;8.98;6.00;;;;;;;6.82;69.99;98406.50;4963795;28;20039;-68
2021/03/11 01:01:30;;;;;;;11.27;6.55;;;;;;;6.85;70.15;98408.94;4973563;28;20046;-70
2021/03/11 01:03:55;;;;;;;8.27;5.95;;;;;;;6.83;70.14;98421.25;4973035;28;20126;-70
2021/03/11 01:06:21;;;;;;;8.98;6.85;;;;;;;6.87;70.20;98413.16;4973326;28;20142;-69
2021/03/11 01:08:46;;;;;;;9.10;6.38;;;;;;;6.91;69.94;98426.06;4973699;28;20039;-67
2021/03/11 01:11:11;;;;;;;9.57;6.28;;;;;;;6.91;69.72;98413.81;4974264;28;20567;-68
2021/03/11 01:13:37;;;;;;;8.80;6.20;;;;;;;6.96;69.93;98422.25;4972843;28;20117;-69
2021/03/11 01:16:03;;;;;;;8.75;6.22;;;;;;;6.91;69.65;98420.84;4973247;28;20038;-68
2021/03/11 01:18:28;;;;;;;9.68;6.47;;;;;;;6.94;69.58;98397.94;4973313;28;20105;-69
2021/03/11 01:20:54;;;;;;;9.48;6.03;;;;;;;6.95;69.46;98386.50;4940428;28;20066;-70
2021/03/11 01:23:19;;;;;;;8.88;5.60;;;;;;;7.00;69.54;98371.38;4974027;28;20043;-69
2021/03/11 01:25:44;;;;;;;7.70;5.70;;;;;;;7.00;69.54;98371.38;4973932;28;20034;-68
2021/03/11 01:28:10;;;;;;;7.65;6.07;;;;;;;7.02;69.55;98364.28;4973337;28;20031;-69
2021/03/11 01:30:35;;;;;;;7.72;5.25;;;;;;;7.04;68.79;98351.94;4955913;28;20085;-68
2021/03/11 01:33:00;;;;;;;7.25;5.07;;;;;;;7.06;69.09;98349.22;4973443;28;20371;-68
2021/03/11 01:35:26;;;;;;;6.97;4.95;;;;;;;7.08;69.00;98345.56;4973154;28;20039;-70
2021/03/11 01:37:52;;;;;;;6.60;4.47;;;;;;;7.12;68.93;98334.94;4972987;28;20402;-71
2021/03/11 01:40:18;;;;;;;9.35;6.32;;;;;;;7.13;68.90;98341.84;4973409;28;20497;-70
2021/03/11 01:42:43;;;;;;;6.93;4.90;;;;;;;7.13;68.71;98324.34;4975648;28;20576;-70
2021/03/11 01:45:09;;;;;;;7.65;4.65;;;;;;;7.13;68.48;98331.34;4982028;28;20177;-71
2021/03/11 01:47:35;;;;;;;6.90;5.05;;;;;;;7.10;68.72;98324.53;4993783;28;20035;-73
2021/03/11 01:50:01;;;;;;;6.25;4.35;;;;;;;7.16;68.78;98324.19;4979460;28;20062;-70
2021/03/11 01:52:27;;;;;;;6.13;4.50;;;;;;;7.19;68.80;98318.75;4975224;28;20031;-71
2021/03/11 01:54:52;;;;;;;6.80;4.72;;;;;;;7.21;68.81;98302.91;4973082;28;20046;-70
2021/03/11 01:57:18;;;;;;;6.63;3.75;;;;;;;7.21;68.66;98305.53;4972717;28;20046;-70
2021/03/11 01:59:44;;;;;;;5.97;4.45;;;;;;;7.20;68.76;98302.06;4956129;28;20038;-71
2021/03/11 02:02:09;;;;;;;5.85;4.10;;;;;;;7.20;68.06;98312.56;4958861;28;20113;-71
2021/03/11 02:04:35;;;;;;;5.10;3.85;;;;;;;7.24;68.84;98292.28;4955446;28;20067;-71
2021/03/11 02:07:00;;;;;;;4.93;3.72;;;;;;;7.24;68.68;98287.03;4971952;28;20430;-71
2021/03/11 02:09:25;;;;;;;9.55;3.78;;;;;;;7.26;68.57;98283.38;4972298;28;20066;-71
2021/03/11 02:12:20;;;;;;;5.10;3.50;;;;;;;7.27;68.71;98278.97;4972234;28;20031;-69
2021/03/11 02:15:03;;;;;;;5.70;4.10;;;;;;;7.24;68.59;98271.31;4932149;28;20041;-69
2021/03/11 02:17:40;;;;;;;6.63;4.82;;;;;;;7.25;68.69;98259.88;4991151;28;20066;-69
2021/03/11 02:20:44;;;;;;;5.13;3.45;;;;;;;7.31;68.87;98252.50;4991570;28;20125;-69
2021/03/11 02:23:13;;;;;;;4.70;3.20;;;;;;;7.31;69.15;98257.72;4990641;28;20042;-69
2021/03/11 02:25:44;;;;;;;4.38;3.22;;;;;;;7.32;68.79;98240.22;4991502;28;20049;-70
2021/03/11 02:28:26;;;;;;;5.30;3.70;;;;;;;7.31;69.24;98234.13;4990358;28;20566;-68
2021/03/11 02:30:55;;;;;;;7.35;4.35;;;;;;;7.30;69.17;98214.09;4991265;28;20174;-69
2021/03/11 02:33:22;;;;;;;6.32;3.65;;;;;;;7.32;68.99;98220.09;4992432;28;20125;-69
2021/03/11 02:35:51;;;;;;;4.57;3.58;;;;;;;7.32;69.30;98206.13;4991747;28;20422;-69
2021/03/11 02:38:18;;;;;;;5.32;3.38;;;;;;;7.31;69.32;98213.16;4991782;28;20046;-69
2021/03/11 02:40:44;;;;;;;6.97;4.90;;;;;;;7.36;69.50;98217.25;4990877;28;20038;-69
2021/03/11 02:43:12;;;;;;;4.57;3.60;;;;;;;7.35;69.49;98195.47;4992826;28;20053;-69
2021/03/11 02:45:39;;;;;;;6.38;3.97;;;;;;;7.36;69.78;98184.06;4979808;28;20517;-69
2021/03/11 02:48:07;;;;;;;6.38;4.25;;;;;;;7.37;69.80;98169.16;4973397;28;20102;-69
2021/03/11 02:50:35;;;;;;;6.78;4.70;;;;;;;7.34;69.87;98170.19;4976656;28;20062;-69
2021/03/11 02:53:02;;;;;;;6.20;4.13;;;;;;;7.38;69.93;98182.16;4974351;28;20057;-69
2021/03/11 02:55:30;;;;;;;4.93;3.60;;;;;;;7.36;70.30;98177.94;4973937;28;20069;-70
2021/03/11 02:57:57;;;;;;;6.57;4.40;;;;;;;7.36;70.48;98152.59;4990503;28;20035;-69
2021/03/11 03:00:24;;;;;;;5.65;4.28;;;;;;;7.37;70.81;98148.19;4972988;28;20031;-70
2021/03/11 03:02:50;;;;;;;7.30;4.60;;;;;;;7.37;70.76;98151.66;4991538;28;20118;-70
2021/03/11 03:05:18;;;;;;;8.73;5.78;;;;;;;7.29;70.84;98141.63;4990963;28;20034;-71
2021/03/11 03:07:45;;;;;;;8.30;4.05;;;;;;;7.28;71.50;98139.09;4990406;28;20034;-70
2021/03/11 03:10:14;;;;;;;5.93;4.63;;;;;;;7.24;72.46;98159.44;4989995;28;20054;-71
2021/03/11 03:12:40;;;;;;;7.20;5.32;;;;;;;7.19;73.40;98155.41;4970034;28;20118;-70
2021/03/11 03:15:07;;;;;;;9.25;5.38;;;;;;;7.13;73.95;98168.88;4979266;28;20031;-71
2021/03/11 03:17:33;;;;;;;7.25;5.03;;;;;;;7.14;74.31;98157.44;4971181;28;20502;-68
2021/03/11 03:20:00;;;;;;;6.85;5.03;;;;;;;7.10;75.22;98160.28;4970411;28;20031;-68
2021/03/11 03:22:27;;;;;;;8.15;5.70;;;;;;;7.07;75.78;98155.22;4971191;28;20035;-68
2021/03/11 03:24:52;;;;;;;8.80;5.55;;;;;;;7.05;76.12;98153.63;4953358;28;20031;-69
2021/03/11 03:27:18;;;;;;;8.70;6.05;;;;;;;7.02;76.51;98133.72;4971107;28;20037;-70
2021/03/11 03:29:43;;;;;;;9.70;6.20;;;;;;;6.99;77.88;98130.41;4953241;28;20172;-68
2021/03/11 03:32:09;;;;;;;8.02;5.65;;;;;;;7.00;77.24;98122.47;4970889;28;20038;-68
2021/03/11 03:34:34;;;;;;;8.35;6.47;;;;;;;6.99;77.75;98140.91;4953351;28;20035;-68
2021/03/11 03:37:00;;;;;;;8.52;5.95;;;;;;;6.98;77.63;98129.56;4953169;28;20085;-68
2021/03/11 03:39:26;;;;;;;6.78;5.57;;;;;;;7.03;77.53;98119.66;4970810;28;20521;-68
2021/03/11 03:41:55;;;;;;;10.05;7.57;;;;;;;7.00;77.50;98114.63;4971314;28;20061;-68
2021/03/11 03:44:23;;;;;;;6.95;5.53;;;;;;;7.01;77.73;98108.44;4975071;28;20110;-68
2021/03/11 03:46:49;;;;;;;14.38;7.18;;;;;;;6.99;77.98;98098.97;4989863;28;20030;-71
2021/03/11 03:49:16;;;;;;;10.70;6.95;;;;;;;7.02;77.87;98083.94;4982276;28;20097;-70
2021/03/11 03:51:49;;;;;;;9.23;6.22;;;;;;;7.03;77.46;98082.97;4970259;28;20500;-70
2021/03/11 03:54:21;;;;;;;9.20;6.85;;;;;;;7.07;77.58;98074.00;4981964;28;20038;-70
2021/03/11 03:56:59;;;;;;;7.97;6.03;;;;;;;7.08;77.48;98062.56;4970515;28;20452;-70
2021/03/11 03:59:26;;;;;;;6.22;5.03;;;;;;;7.14;77.24;98068.34;4978702;28;20034;-74
2021/03/11 04:01:56;;;;;;;6.65;5.78;;;;;;;7.14;76.96;98050.00;4990582;28;20061;-69
2021/03/11 04:04:24;;;;;;;10.20;6.38;;;;;;;7.16;76.72;98048.16;4989480;28;20042;-70
2021/03/11 04:06:49;;;;;;;6.88;4.68;;;;;;;7.23;76.18;98042.41;4989534;28;20057;-69
2021/03/11 04:09:15;;;;;;;7.78;5.18;;;;;;;7.31;76.21;98028.84;4989548;28;20030;-71
2021/03/11 04:11:45;;;;;;;7.00;5.13;;;;;;;7.32;75.89;98028.72;4982624;28;20037;-70
2021/03/11 04:14:12;;;;;;;6.13;4.80;;;;;;;7.35;75.40;98035.56;4973626;28;20235;-71
2021/03/11 04:16:39;;;;;;;6.50;4.82;;;;;;;7.38;75.31;98010.91;4972902;28;20034;-68
2021/03/11 04:19:05;;;;;;;8.05;5.60;;;;;;;7.44;74.90;98019.25;4989289;28;20062;-68
2021/03/11 04:21:31;;;;;;;11.00;6.15;;;;;;;7.51;74.47;98012.66;4989434;28;20053;-69
2021/03/11 04:23:58;;;;;;;6.80;5.22;;;;;;;7.59;73.94;98006.06;4989728;28;20049;-69
2021/03/11 04:26:23;;;;;;;7.28;4.95;;;;;;;7.64;73.78;98003.97;4987868;28;20132;-72
2021/03/11 04:28:49;;;;;;;7.70;4.63;;;;;;;7.68;73.98;98013.34;4986754;28;20121;-69
2021/03/11 04:31:15;;;;;;;7.05;4.80;;;;;;;7.71;73.80;98018.38;4952805;28;20039;-69
2021/03/11 04:33:41;;;;;;;7.55;5.25;;;;;;;7.79;73.12;98005.59;4936668;28;20490;-69
2021/03/11 04:36:08;;;;;;;6.15;3.80;;;;;;;7.85;72.97;98004.31;4969553;28;20451;-69
2021/03/11 04:38:34;;;;;;;6.95;5.32;;;;;;;7.87;72.95;97990.16;4969949;28;20039;-69
2021/03/11 04:41:00;;;;;;;6.32;3.92;;;;;;;7.93;72.79;97968.78;4953514;28;20041;-69
2021/03/11 04:43:26;;;;;;;7.57;4.90;;;;;;;8.00;72.30;97981.47;4970698;28;20110;-69
2021/03/11 04:45:52;;;;;;;5.60;3.80;;;;;;;8.01;72.69;97991.03;4970999;28;20081;-69
2021/03/11 04:48:18;;;;;;;6.28;4.53;;;;;;;8.07;72.51;97985.34;4969902;28;20395;-69
2021/03/11 04:50:45;;;;;;;7.32;4.90;;;;;;;8.06;72.26;97978.44;4969774;28;20043;-68
2021/03/11 04:53:11;;;;;;;5.22;4.13;;;;;;;8.12;71.81;97985.88;4979791;28;20042;-68
2021/03/11 04:55:37;;;;;;;6.88;5.63;;;;;;;8.14;71.90;97984.00;4988949;28;20077;-68
2021/03/11 04:58:03;;;;;;;5.97;4.10;;;;;;;8.17;72.15;97984.66;4988962;28;20031;-70
2021/03/11 05:00:31;;;;;;;5.97;4.28;;;;;;;8.22;71.79;97984.34;4988782;28;20026;-69
2021/03/11 05:02:57;;;;;;;8.00;5.50;;;;;;;8.25;71.39;97983.28;4987553;28;20030;-67
2021/03/11 05:05:33;;;;;;;6.13;3.90;;;;;;;8.32;70.96;97989.78;4990071;28;20046;-70
2021/03/11 05:07:59;;;;;;;6.15;4.05;;;;;;;8.40;71.06;97991.91;4988401;28;20508;-71
2021/03/11 05:10:24;;;;;;;7.55;3.97;;;;;;;8.44;70.99;97991.59;4989159;28;20037;-69
2021/03/11 05:12:50;;;;;;;5.90;3.90;;;;;;;8.46;70.59;97975.72;4988607;28;20041;-69
2021/03/11 05:15:15;;;;;;;6.63;5.03;;;;;;;8.50;70.71;97975.41;4988291;28;20047;-70
2021/03/11 05:17:40;;;;;;;6.53;4.55;;;;;;;8.53;70.59;97983.06;4983838;28;20398;-71
2021/03/11 05:20:06;;;;;;;7.53;4.72;;;;;;;8.56;70.09;97966.25;4952288;28;20027;-71
2021/03/11 05:22:32;;;;;;;5.72;4.20;;;;;;;8.60;70.03;97988.72;4968950;28;20034;-71
2021/03/11 05:24:57;;;;;;;5.75;4.55;;;;;;;8.61;69.94;97985.16;4969494;28;20089;-69
2021/03/11 05:27:22;;;;;;;7.38;3.90;;;;;;;8.65;70.36;97986.63;4969805;28;20093;-70
2021/03/11 05:29:48;;;;;;;6.40;4.55;;;;;;;8.66;70.30;97979.56;4983150;28;20058;-70
2021/03/11 05:32:13;;;;;;;8.20;4.40;;;;;;;8.64;70.50;97973.59;4987446;28;20041;-70
2021/03/11 05:34:38;;;;;;;5.45;4.25;;;;;;;8.62;70.35;97960.59;4964559;28;20108;-70
2021/03/11 05:37:04;;;;;;;4.97;3.63;;;;;;;8.63;70.87;97956.16;4971203;28;20041;-69
2021/03/11 05:39:29;;;;;;;6.90;4.68;;;;;;;8.60;71.52;97933.56;4988866;28;20035;-69
2021/03/11 05:41:55;;;;;;;6.55;4.18;;;;;;;8.59;71.30;97942.41;4989019;28;20046;-69
2021/03/11 05:44:21;;;;;;;8.20;5.43;;;;;;;8.60;71.64;97962.47;4991374;28;20042;-70
2021/03/11 05:46:47;;;;;;;5.53;4.22;;;;;;;8.61;71.27;97964.13;4992051;28;20030;-68
2021/03/11 05:49:14;;;;;;;7.15;4.35;;;;;;;8.64;72.10;97963.06;4992008;28;20069;-69
2021/03/11 05:51:42;;;;;;;8.65;4.78;;;;;;;8.65;71.97;97965.59;4992128;28;20573;-69
2021/03/11 05:54:08;;;;;;;6.32;4.93;;;;;;;8.69;72.10;97974.09;4992415;28;20477;-69
2021/03/11 05:56:34;;;;;;;8.02;4.90;;;;;;;8.72;71.96;97973.91;4991718;28;20026;-69
2021/03/11 05:59:01;;;;;;;7.03;4.43;;;;;;;8.70;71.72;97958.25;4974126;28;20038;-68
2021/03/11 06:01:30;;;;;;;6.60;5.40;;;;;;;8.71;71.79;97970.44;4991690;28;20035;-69
2021/03/11 06:03:56;;;;;;;6.75;5.05;;;;;;;8.77;71.78;97963.91;4991678;28;20045;-68
2021/03/11 06:06:23;;;;;;;6.60;4.63;;;;;;;8.82;71.56;97973.13;4974782;28;20108;-73
2021/03/11 06:08:55;;;;;;;6.85;5.32;;;;;;;8.86;72.47;97979.03;4990610;28;20026;-69
2021/03/11 06:11:22;;;;;;;6.93;5.03;;;;;;;8.90;72.19;97971.75;4992741;28;20035;-70
2021/03/11 06:13:49;;;;;;;7.07;5.15;;;;;;;8.95;71.76;97956.50;4991967;28;20114;-71
2021/03/11 06:16:24;;;;;;;6.88;4.68;;;;;;;8.99;71.94;97952.69;4991857;28;20027;-71
2021/03/11 06:18:50;;;;;;;8.13;5.35;;;;;;;9.01;71.92;97956.91;4990714;28;20108;-71
2021/03/11 06:21:17;;;;;;;5.75;4.45;;;;;;;9.07;71.53;97952.97;4988864;28;20057;-70
2021/03/11 06:23:43;;;;;;;6.05;4.43;;;;;;;9.14;71.23;97953.38;4991263;28;20038;-70
2021/03/11 06:26:11;;;;;;;8.00;6.35;;;;;;;9.14;71.31;97930.56;4990676;28;20045;-68
2021/03/11 06:28:46;;;;;;;7.45;5.00;;;;;;;9.24;70.83;97921.03;4991474;28;20030;-69
2021/03/11 06:31:25;;;;;;;5.05;4.10;;;;;;;9.32;70.94;97938.03;4991663;28;20046;-68
2021/03/11 06:33:52;;;;;;;6.07;4.60;;;;;;;9.36;70.69;97929.81;4990168;28;20034;-66
2021/03/11 06:36:20;;;;;;;5.95;4.40;;;;;;;9.42;70.64;97937.22;4974053;28;20040;-69
2021/03/11 06:38:45;;;;;;;5.30;3.88;;;;;;;9.49;70.55;97942.03;4991042;28;20537;-69
2021/03/11 06:41:10;;;;;;;6.80;4.72;;;;;;;9.49;70.08;97936.78;4991146;28;20046;-68
2021/03/11 06:43:59;;;;;;;4.97;3.67;;;;;;;9.54;70.25;97929.38;4985159;28;20057;-67
2021/03/11 06:46:29;;;;;;;6.68;5.15;;;;;;;9.60;70.38;97916.63;4970338;28;20041;-69
2021/03/11 06:49:06;;;;;;;4.82;3.50;;;;;;;9.66;69.64;97928.47;4987921;28;20093;-69
2021/03/11 06:51:32;;;;;;;5.85;3.88;;;;;;;9.71;69.84;97914.97;4971641;28;20042;-69
2021/03/11 06:54:00;;;;;;;6.15;4.43;;;;;;;9.79;69.88;97912.59;4980054;28;20030;-69
2021/03/11 06:56:26;;;;;;;8.45;4.40;;;;;;;9.82;69.33;97889.53;4974311;28;20065;-69
2021/03/11 06:59:05;;;;;;;6.07;4.28;;;;;;;9.87;69.15;97897.06;4974647;28;20069;-69
2021/03/11 07:01:32;;;;;;;5.22;3.47;;;;;;;9.86;69.42;97890.94;4989402;28;20042;-70
2021/03/11 07:04:01;;;;;;;7.45;3.55;;;;;;;9.86;69.52;97890.09;4982699;28;21037;-70
2021/03/11 07:06:32;;;;;;;6.50;4.32;;;;;;;9.87;69.22;97897.91;4990315;28;20034;-70
2021/03/11 07:08:58;;;;;;;6.65;3.97;;;;;;;9.86;69.64;97879.59;4990905;28;20045;-71
2021/03/11 07:11:25;;;;;;;9.38;5.07;;;;;;;9.91;69.47;97876.59;4991848;28;20528;-70
2021/03/11 07:13:51;;;;;;;5.70;4.05;;;;;;;9.87;70.98;97876.00;4991286;28;20038;-69
2021/03/11 07:16:19;;;;;;;7.25;5.07;;;;;;;9.77;70.77;97873.25;4992224;28;20478;-70
2021/03/11 07:18:45;;;;;;;5.68;3.95;;;;;;;9.75;71.87;97869.06;4991261;28;20458;-69
2021/03/11 07:21:12;;;;;;;7.65;5.32;;;;;;;9.78;71.31;97866.19;4990966;28;20073;-69
2021/03/11 07:23:48;;;;;;;9.25;5.45;;;;;;;9.83;71.59;97882.47;4990799;28;20034;-70
2021/03/11 07:26:14;;;;;;;6.93;4.40;;;;;;;9.87;70.84;97865.50;4973895;28;20046;-70
2021/03/11 07:28:39;;;;;;;5.13;4.30;;;;;;;9.91;70.85;97858.19;4990719;28;20490;-70
2021/03/11 07:31:04;;;;;;;5.65;4.18;;;;;;;9.92;70.61;97857.22;4990601;28;20034;-70
2021/03/11 07:33:33;;;;;;;5.72;3.78;;;;;;;9.98;70.90;97862.84;4990272;28;20658;-71
2021/03/11 07:36:00;;;;;;;5.95;4.50;;;;;;;10.03;70.32;97860.69;4990683;28;20034;-70
2021/03/11 07:38:28;;;;;;;6.57;4.05;;;;;;;10.11;70.35;97873.25;4991029;28;20517;-70
2021/03/11 07:40:56;;;;;;;6.30;4.07;;;;;;;10.09;71.66;97862.84;4990578;28;20043;-70
2021/03/11 07:43:23;;;;;;;6.57;3.85;;;;;;;9.96;72.91;97863.91;4989883;28;20042;-70
2021/03/11 07:45:48;;;;;;;5.90;4.68;;;;;;;9.84;74.32;97884.13;4990136;28;20065;-68
2021/03/11 07:48:14;;;;;;;8.70;5.70;;;;;;;9.80;75.21;97859.00;4990347;28;20452;-69
2021/03/11 07:50:42;;;;;;;10.80;5.90;;;;;;;9.70;75.54;97858.03;4990601;28;20042;-70
2021/03/11 07:53:08;;;;;;;8.43;5.25;;;;;;;9.59;76.47;97850.97;4990636;28;20035;-70
2021/03/11 07:55:35;;;;;;;9.32;5.10;;;;;;;9.59;76.81;97850.97;4972656;28;20076;-70
2021/03/11 07:58:13;;;;;;;6.45;4.63;;;;;;;9.57;76.66;97843.16;4989964;28;20045;-71
2021/03/11 08:00:39;;;;;;;8.65;5.95;;;;;;;9.51;76.43;97843.66;4990379;28;20110;-71
2021/03/11 08:03:13;;;;;;;10.27;4.75;;;;;;;9.58;76.82;97846.66;4972803;28;20092;-71
2021/03/11 08:05:39;;;;;;;8.82;4.32;;;;;;;9.64;76.68;97831.22;4989792;28;20057;-70
2021/03/11 08:08:18;;;;;;;6.22;4.75;;;;;;;9.67;77.18;97824.88;4989862;28;20060;-71
2021/03/11 08:10:44;;;;;;;6.90;4.45;;;;;;;9.66;77.12;97824.06;4983962;28;20034;-71
2021/03/11 08:13:39;;;;;;;8.43;5.13;;;;;;;9.67;77.85;97823.13;4981405;28;20046;-69
2021/03/11 08:16:13;;;;;;;7.30;4.82;;;;;;;9.74;77.08;97806.84;4961826;28;20035;-69
2021/03/11 08:18:43;;;;;;;6.38;4.80;;;;;;;9.81;77.02;97815.94;4989120;28;20100;-70
2021/03/11 08:21:24;;;;;;;8.68;5.82;;;;;;;9.78;77.98;97808.28;4990411;28;20129;-69
2021/03/11 08:23:50;;;;;;;9.52;5.40;;;;;;;9.77;77.97;97788.19;4990367;28;20030;-70
2021/03/11 08:26:37;;;;;;;7.93;4.82;;;;;;;9.78;78.07;97785.44;4989609;28;20050;-68
2021/03/11 08:29:22;;;;;;;10.00;4.18;;;;;;;9.71;78.61;97791.31;4985068;28;20121;-70
2021/03/11 08:31:49;;;;;;;6.70;4.17;;;;;;;9.74;78.41;97777.91;4970170;28;20101;-68
2021/03/11 08:34:33;;;;;;;9.27;4.45;;;;;;;9.70;78.93;97779.09;4952747;28;20039;-68
2021/03/11 08:37:20;;;;;;;9.95;3.72;;;;;;;9.77;78.49;97782.91;4969491;28;20093;-70
2021/03/11 08:39:47;;;;;;;5.00;4.20;;;;;;;9.73;78.02;97784.97;4988174;28;20035;-69
2021/03/11 08:42:48;;;;;;;5.63;3.92;;;;;;;9.74;78.05;97775.28;4981141;28;20041;-70
2021/03/11 08:45:33;;;;;;;5.32;3.03;;;;;;;9.79;78.81;97779.22;4989437;28;20046;-70
2021/03/11 08:48:15;;;;;;;4.88;2.75;;;;;;;9.78;78.06;97774.91;4985725;28;20050;-69
2021/03/11 08:50:42;;;;;;;4.75;3.15;;;;;;;9.84;78.25;97769.16;4989011;28;20034;-70
2021/03/11 08:53:08;;;;;;;4.30;2.75;;;;;;;9.94;78.25;97852.66;4988094;28;20061;-70
2021/03/11 08:55:36;;;;;;;4.82;3.47;;;;;;;9.93;78.44;97880.78;4989154;28;20485;-70
2021/03/11 08:58:02;;;;;;;44.45;5.10;;;;;;;9.51;75.30;97890.16;4989469;28;20042;-70
2021/03/11 09:00:53;;;;;;;24.48;4.38;;;;;;;8.89;79.13;97878.09;4988950;28;20129;-70
2021/03/11 09:03:41;;;;;;;18.98;4.82;;;;;;;8.55;80.13;97896.28;4989593;28;20038;-69
2021/03/11 09:06:08;;;;;;;11.57;3.65;;;;;;;8.49;80.10;97894.94;4991085;28;20081;-69
2021/03/11 09:08:35;;;;;;;19.27;3.97;;;;;;;8.55;79.18;97901.56;4991116;28;20065;-70
2021/03/11 09:11:11;;;;;;;17.48;3.63;;;;;;;8.60;78.33;97912.56;4990086;28;20125;-68
2021/03/11 09:13:40;;;;;;;13.80;3.03;;;;;;;8.59;78.49;97903.84;4989182;28;20398;-68
2021/03/11 09:16:06;;;;;;;16.80;4.63;;;;;;;8.60;78.13;97904.69;4988786;28;20030;-68
2021/03/11 09:18:32;;;;;;;13.02;4.57;;;;;;;8.64;76.94;97893.03;4989927;28;20520;-70
2021/03/11 09:20:59;;;;;;;13.13;3.40;;;;;;;8.74;76.40;97898.44;4993075;28;20441;-68
2021/03/11 09:23:41;;;;;;;21.23;4.80;;;;;;;9.73;74.48;97897.28;4975565;28;20026;-70
2021/03/11 09:26:22;;;;;;;16.00;4.57;;;;;;;10.05;72.48;97884.28;4990356;28;20502;-70
2021/03/11 09:28:48;;;;;;;15.32;4.28;;;;;;;9.78;72.75;97882.81;4984083;28;20602;-70
2021/03/11 09:31:27;;;;;;;15.82;5.72;;;;;;;9.61;73.25;97888.50;4983048;28;20045;-70
2021/03/11 09:33:55;;;;;;;19.90;4.18;;;;;;;9.47;72.89;97889.53;4983245;28;20027;-71
2021/03/11 09:36:20;;;;;;;18.15;5.07;;;;;;;9.41;73.18;97890.84;4982008;28;20077;-70
2021/03/11 09:38:46;;;;;;;12.43;3.70;;;;;;;9.96;71.83;97921.81;4984235;28;20447;-71
2021/03/11 09:41:12;;;;;;;14.00;4.68;;;;;;;10.41;69.67;97887.63;4973660;28;20081;-70
2021/03/11 09:43:38;;;;;;;12.45;3.42;;;;;;;10.80;68.34;97888.06;4991332;28;20042;-70
2021/03/11 09:46:12;;;;;;;9.10;4.20;;;;;;;11.38;65.79;97897.31;4974163;28;20046;-71
2021/03/11 09:48:40;;;;;;;9.95;4.78;;;;;;;12.53;61.97;97899.94;4991738;28;20126;-71
2021/03/11 09:51:05;;;;;;;14.98;4.40;;;;;;;12.73;60.17;97870.91;4992124;28;20065;-70
2021/03/11 09:53:35;;;;;;;14.75;5.13;;;;;;;12.78;59.13;97871.31;4992209;28;20072;-70
2021/03/11 09:56:01;;;;;;;13.32;3.88;;;;;;;13.02;58.66;97884.13;4987842;28;20441;-71
2021/03/11 09:58:27;;;;;;;9.52;3.40;;;;;;;12.87;59.28;97875.78;4986116;28;20469;-70
2021/03/11 10:00:53;;;;;;;11.00;3.30;;;;;;;13.43;57.34;97884.88;4978377;28;20122;-70
2021/03/11 10:03:23;;;;;;;10.20;3.60;;;;;;;13.87;56.26;97864.88;4981136;28;20641;-68
2021/03/11 10:05:53;;;;;;;13.63;3.20;;;;;;;14.99;53.43;97848.06;4980061;28;20057;-70
2021/03/11 10:08:26;;;;;;;9.52;3.72;;;;;;;16.04;50.48;97863.13;4980223;28;20149;-70
2021/03/11 10:10:57;;;;;;;7.57;4.07;;;;;;;16.00;49.10;97831.75;4965935;28;20042;-68
2021/03/11 10:13:47;;;;;;;8.10;3.42;;;;;;;16.75;47.31;97831.84;4984256;28;20057;-67
2021/03/11 10:16:13;;;;;;;7.65;2.55;;;;;;;16.95;45.04;97830.59;4985285;28;20406;-67
2021/03/11 10:19:03;;;;;;;10.40;3.40;;;;;;;17.08;44.80;97840.78;4992252;28;20034;-67
2021/03/11 10:21:30;;;;;;;14.57;4.38;;;;;;;17.31;43.15;97818.81;4992438;28;20043;-65
2021/03/11 10:23:55;;;;;;;8.43;3.35;;;;;;;17.48;41.29;97844.44;4992339;28;20031;-68
2021/03/11 10:26:34;;;;;;;8.90;3.53;;;;;;;17.37;41.36;97829.63;4991545;28;20045;-66
2021/03/11 10:29:05;;;;;;;9.60;2.90;;;;;;;17.74;40.38;97822.91;4991583;28;20035;-68
2021/03/11 10:31:31;;;;;;;12.70;4.30;;;;;;;17.94;39.00;97803.91;4991893;28;20066;-67
2021/03/11 10:34:07;;;;;;;12.07;4.60;;;;;;;17.33;39.14;97828.31;4992243;28;20113;-67
2021/03/11 10:36:34;;;;;;;11.57;3.63;;;;;;;17.88;38.82;97839.28;4991533;28;20041;-66
2021/03/11 10:39:04;;;;;;;5.38;3.03;;;;;;;17.93;37.25;97826.25;4981242;28;20110;-69
2021/03/11 10:41:31;;;;;;;17.27;3.80;;;;;;;18.10;37.95;97832.38;4975090;28;20494;-68
2021/03/11 10:44:10;;;;;;;34.03;4.70;;;;;;;17.78;38.35;97831.44;4973750;28;20039;-68
2021/03/11 10:46:36;;;;;;;10.93;3.53;;;;;;;17.31;39.11;97824.16;4987865;28;20034;-68
2021/03/11 10:49:02;;;;;;;12.10;4.18;;;;;;;16.69;38.17;97851.16;4962798;28;20068;-68
2021/03/11 10:51:30;;;;;;;11.68;4.18;;;;;;;15.89;39.83;97848.78;4989052;28;20038;-67
2021/03/11 10:53:58;;;;;;;10.95;3.45;;;;;;;16.20;38.85;97840.31;4988035;28;20038;-67
2021/03/11 10:56:24;;;;;;;13.57;3.80;;;;;;;15.92;38.58;97864.41;4984762;28;20074;-70
2021/03/11 10:58:59;;;;;;;8.30;2.78;;;;;;;15.39;40.06;97873.28;4968304;28;20055;-72
2021/03/11 11:01:27;;;;;;;15.57;5.63;;;;;;;14.72;40.01;97843.63;4968759;28;20034;-71
2021/03/11 11:03:54;;;;;;;12.98;4.38;;;;;;;14.41;39.77;97824.50;4968380;28;20039;-72
2021/03/11 11:06:21;;;;;;;13.98;5.65;;;;;;;14.20;42.03;97859.19;4968467;28;20058;-70
2021/03/11 11:08:46;;;;;;;14.68;4.70;;;;;;;13.94;41.83;97857.22;4950932;28;20089;-70
2021/03/11 11:11:13;;;;;;;10.40;3.33;;;;;;;13.84;42.07;97849.28;4968735;28;20042;-70
2021/03/11 11:13:38;;;;;;;31.38;6.50;;;;;;;13.73;42.73;97858.25;4968396;28;20035;-71
2021/03/11 11:16:04;;;;;;;11.07;4.45;;;;;;;13.61;41.72;97858.53;4968304;28;20061;-70
2021/03/11 11:18:31;;;;;;;20.67;5.13;;;;;;;13.60;42.22;97836.50;4969102;28;20078;-69
2021/03/11 11:20:57;;;;;;;22.83;6.03;;;;;;;13.38;44.09;97866.78;4979120;28;20116;-69
2021/03/11 11:23:22;;;;;;;13.00;4.40;;;;;;;13.22;43.25;97875.25;4991480;28;20158;-70
2021/03/11 11:25:48;;;;;;;32.40;6.10;;;;;;;13.05;44.54;97857.44;4972940;28;20743;-69
2021/03/11 11:28:13;;;;;;;15.82;4.60;;;;;;;12.96;43.84;97869.66;4986691;28;20050;-69
2021/03/11 11:30:39;;;;;;;20.65;5.15;;;;;;;12.92;43.87;97872.72;4968630;28;20039;-70
2021/03/11 11:33:05;;;;;;;26.88;4.82;;;;;;;13.26;43.47;97881.94;4949719;28;20046;-70
2021/03/11 11:35:30;;;;;;;20.92;4.72;;;;;;;13.44;43.60;97855.66;4986847;28;20046;-72
2021/03/11 11:37:56;;;;;;;15.98;4.47;;;;;;;13.42;44.40;97859.41;4981595;28;20205;-70
2021/03/11 11:40:21;;;;;;;14.73;4.28;;;;;;;13.49;42.67;97882.53;4950528;28;20050;-73
2021/03/11 11:42:47;;;;;;;14.65;5.00;;;;;;;13.48;42.22;97878.19;4967568;28;20042;-69